createdAt,value
2018-08-14T00:00:43.756Z,21.06
2018-08-14T00:03:11.211Z,21.04
2018-08-14T00:05:38.778Z,21.05
2018-08-14T00:08:06.215Z,21.07
2018-08-14T00:10:33.685Z,21.03
2018-08-14T00:13:01.944Z,20.99
2018-08-14T00:15:29.426Z,20.99
2018-08-14T00:17:56.884Z,21.00
2018-08-14T00:20:24.320Z,20.99
2018-08-14T00:22:51.747Z,20.93
2018-08-14T00:25:19.159Z,20.88
2018-08-14T00:27:46.737Z,20.74
2018-08-14T00:30:14.127Z,20.69
2018-08-14T00:32:41.610Z,20.68
2018-08-14T00:35:09.059Z,20.72
2018-08-14T00:37:36.490Z,20.78
2018-08-14T00:40:04.184Z,20.69
2018-08-14T00:42:31.622Z,20.68
2018-08-14T00:44:59.099Z,20.73
2018-08-14T00:47:26.550Z,20.68
2018-08-14T00:49:54.023Z,20.58
2018-08-14T00:52:21.493Z,20.59
2018-08-14T00:54:48.922Z,20.63
2018-08-14T00:57:16.482Z,20.68
2018-08-14T00:59:43.937Z,20.73
2018-08-14T01:02:11.449Z,20.79
2018-08-14T01:04:38.843Z,20.84
2018-08-14T01:07:06.305Z,20.85
2018-08-14T01:09:33.739Z,20.84
2018-08-14T01:12:02.080Z,20.82
2018-08-14T01:14:29.564Z,20.86
2018-08-14T01:16:56.991Z,20.86
2018-08-14T01:19:24.471Z,20.91
2018-08-14T01:21:52.042Z,20.85
2018-08-14T01:24:19.644Z,20.72
2018-08-14T01:26:47.254Z,20.60
2018-08-14T01:29:14.712Z,20.50
2018-08-14T01:31:42.200Z,20.44
2018-08-14T01:34:09.648Z,20.31
2018-08-14T01:36:37.109Z,20.31
2018-08-14T01:39:04.533Z,20.40
2018-08-14T01:41:32.048Z,20.40
2018-08-14T01:43:59.486Z,20.35
2018-08-14T01:46:26.929Z,20.28
2018-08-14T01:48:54.368Z,20.27
2018-08-14T01:51:21.773Z,20.29
2018-08-14T01:53:49.210Z,20.33
2018-08-14T01:56:16.673Z,20.28
2018-08-14T01:58:44.258Z,20.20
2018-08-14T02:01:11.727Z,20.20
2018-08-14T02:03:39.119Z,20.19
2018-08-14T02:06:06.559Z,20.20
2018-08-14T02:08:34.057Z,20.15
2018-08-14T02:11:01.454Z,20.01
2018-08-14T02:13:28.935Z,20.03
2018-08-14T02:15:56.431Z,20.08
2018-08-14T02:18:23.856Z,20.18
2018-08-14T02:20:51.331Z,20.28
2018-08-14T02:23:18.746Z,20.32
2018-08-14T02:25:46.286Z,20.24
2018-08-14T02:28:13.698Z,20.18
2018-08-14T02:30:41.150Z,20.17
2018-08-14T02:33:08.568Z,20.17
2018-08-14T02:35:36.020Z,20.22
2018-08-14T02:38:03.430Z,20.21
2018-08-14T02:40:30.896Z,20.20
2018-08-14T02:42:58.378Z,20.27
2018-08-14T02:45:25.779Z,20.30
2018-08-14T02:47:53.256Z,20.31
2018-08-14T02:50:20.732Z,20.31
2018-08-14T02:52:48.964Z,20.29
2018-08-14T02:55:16.451Z,20.25
2018-08-14T02:57:43.862Z,20.25
2018-08-14T03:00:11.345Z,20.27
2018-08-14T03:02:38.777Z,20.28
2018-08-14T03:05:06.263Z,20.30
2018-08-14T03:07:33.732Z,20.32
2018-08-14T03:10:01.134Z,20.33
2018-08-14T03:12:28.594Z,20.32
2018-08-14T03:14:56.015Z,20.27
2018-08-14T03:17:23.427Z,20.27
2018-08-14T03:19:50.892Z,20.25
2018-08-14T03:22:18.340Z,20.25
2018-08-14T03:24:45.922Z,20.26
2018-08-14T03:27:13.339Z,20.23
2018-08-14T03:29:40.810Z,20.26
2018-08-14T03:32:08.309Z,20.28
2018-08-14T03:34:35.727Z,20.27
2018-08-14T03:37:03.168Z,20.23
2018-08-14T03:39:30.622Z,20.18
2018-08-14T03:41:58.092Z,20.09
2018-08-14T03:44:25.539Z,20.11
2018-08-14T03:46:52.954Z,20.19
2018-08-14T03:49:20.418Z,20.30
2018-08-14T03:51:47.890Z,20.34
2018-08-14T03:54:15.309Z,20.26
2018-08-14T03:56:42.726Z,20.16
2018-08-14T03:59:10.163Z,20.12
2018-08-14T04:01:37.734Z,20.18
2018-08-14T04:04:05.155Z,20.21
2018-08-14T04:06:32.604Z,20.21
2018-08-14T04:09:00.016Z,20.17
2018-08-14T04:11:27.410Z,19.96
2018-08-14T04:13:54.865Z,19.95
2018-08-14T04:16:22.353Z,19.98
2018-08-14T04:18:49.771Z,20.02
2018-08-14T04:21:17.248Z,20.09
2018-08-14T04:23:44.701Z,20.13
2018-08-14T04:26:12.159Z,20.14
2018-08-14T04:28:39.675Z,20.08
2018-08-14T04:31:07.112Z,20.08
2018-08-14T04:33:34.590Z,20.10
2018-08-14T04:36:02.140Z,20.06
2018-08-14T04:38:29.656Z,19.95
2018-08-14T04:40:57.083Z,19.74
2018-08-14T04:43:24.532Z,19.55
2018-08-14T04:45:52.035Z,19.69
2018-08-14T04:48:19.513Z,19.77
2018-08-14T04:50:46.981Z,19.89
2018-08-14T04:53:15.210Z,20.00
2018-08-14T04:55:42.711Z,20.07
2018-08-14T04:58:10.116Z,20.10
2018-08-14T05:00:37.557Z,20.07
2018-08-14T05:03:05.001Z,19.99
2018-08-14T05:05:32.644Z,19.85
2018-08-14T05:08:00.096Z,19.86
2018-08-14T05:10:27.518Z,19.84
2018-08-14T05:12:54.961Z,19.80
2018-08-14T05:15:22.426Z,19.81
2018-08-14T05:17:49.972Z,19.85
2018-08-14T05:20:17.482Z,19.91
2018-08-14T05:22:45.015Z,19.90
2018-08-14T05:25:12.585Z,19.82
2018-08-14T05:27:39.974Z,19.80
2018-08-14T05:30:07.418Z,19.90
2018-08-14T05:32:34.945Z,20.10
2018-08-14T05:35:02.371Z,20.29
2018-08-14T05:37:29.800Z,20.43
2018-08-14T05:39:57.332Z,20.44
2018-08-14T05:42:24.737Z,20.56
2018-08-14T05:44:52.285Z,20.77
2018-08-14T05:47:19.864Z,21.06
2018-08-14T05:49:47.325Z,21.29
2018-08-14T05:52:14.761Z,21.48
2018-08-14T05:54:42.197Z,21.53
2018-08-14T05:57:09.627Z,21.72
2018-08-14T05:59:37.092Z,21.87
2018-08-14T06:02:04.541Z,21.85
2018-08-14T06:04:32.003Z,21.93
2018-08-14T06:06:59.474Z,21.93
2018-08-14T06:09:26.916Z,21.92
2018-08-14T06:11:54.332Z,21.92
2018-08-14T06:14:21.920Z,21.94
2018-08-14T06:16:49.397Z,22.00
2018-08-14T06:19:16.834Z,22.00
2018-08-14T06:21:44.278Z,22.05
2018-08-14T06:24:11.690Z,21.97
2018-08-14T06:26:39.137Z,22.04
2018-08-14T06:29:06.665Z,22.13
2018-08-14T06:31:34.307Z,22.28
2018-08-14T06:34:01.739Z,22.32
2018-08-14T06:36:29.144Z,22.48
2018-08-14T06:38:56.559Z,22.66
2018-08-14T06:41:24.049Z,23.05
2018-08-14T06:43:51.452Z,23.52
2018-08-14T06:46:18.912Z,23.90
2018-08-14T06:48:46.393Z,24.51
2018-08-14T06:51:13.880Z,24.76
2018-08-14T06:53:41.325Z,24.75
2018-08-14T06:56:08.769Z,25.03
2018-08-14T06:58:36.208Z,24.93
2018-08-14T07:01:03.656Z,24.51
2018-08-14T07:03:31.126Z,24.08
2018-08-14T07:05:58.636Z,23.92
2018-08-14T07:08:26.079Z,24.14
2018-08-14T07:10:53.578Z,24.19
2018-08-14T07:13:21.090Z,24.12
2018-08-14T07:15:48.512Z,24.34
2018-08-14T07:18:16.005Z,24.25
2018-08-14T07:20:43.406Z,24.18
2018-08-14T07:23:10.884Z,24.19
2018-08-14T07:25:38.345Z,24.18
2018-08-14T07:28:05.812Z,24.01
2018-08-14T07:30:33.550Z,23.92
2018-08-14T07:33:01.064Z,23.99
2018-08-14T07:35:28.500Z,24.07
2018-08-14T07:37:56.002Z,24.11
2018-08-14T07:40:24.110Z,24.16
2018-08-14T07:42:51.614Z,24.14
2018-08-14T07:45:19.031Z,24.16
2018-08-14T07:47:46.495Z,24.19
2018-08-14T07:50:14.116Z,24.47
2018-08-14T07:52:41.533Z,24.81
2018-08-14T07:55:09.261Z,24.77
2018-08-14T07:57:36.761Z,25.36
2018-08-14T08:00:04.268Z,25.34
2018-08-14T08:02:31.802Z,24.79
2018-08-14T08:04:59.253Z,24.29
2018-08-14T08:07:26.799Z,23.99
2018-08-14T08:09:54.275Z,23.93
2018-08-14T08:12:21.789Z,23.98
2018-08-14T08:14:49.213Z,24.14
2018-08-14T08:17:16.634Z,24.44
2018-08-14T08:19:44.188Z,25.87
2018-08-14T08:22:11.690Z,26.17
2018-08-14T08:24:39.832Z,26.92
2018-08-14T08:27:07.621Z,28.20
2018-08-14T08:29:35.171Z,28.89
2018-08-14T08:32:02.604Z,28.93
2018-08-14T08:34:30.477Z,29.22
2018-08-14T08:36:57.875Z,29.32
2018-08-14T08:39:25.300Z,29.27
2018-08-14T08:41:52.795Z,28.71
2018-08-14T08:44:20.279Z,27.69
2018-08-14T08:46:47.714Z,27.88
2018-08-14T08:49:15.185Z,28.17
2018-08-14T08:51:42.716Z,27.89
2018-08-14T08:54:10.144Z,28.20
2018-08-14T08:56:37.629Z,28.50
2018-08-14T08:59:05.079Z,28.48
2018-08-14T09:01:32.476Z,28.30
2018-08-14T09:03:59.977Z,28.23
2018-08-14T09:06:27.422Z,27.72
2018-08-14T09:08:54.926Z,27.25
2018-08-14T09:11:22.334Z,26.91
2018-08-14T09:13:49.777Z,26.85
2018-08-14T09:16:17.322Z,26.69
2018-08-14T09:18:44.826Z,26.33
2018-08-14T09:21:12.295Z,25.88
2018-08-14T09:23:39.767Z,25.74
2018-08-14T09:26:07.255Z,25.69
2018-08-14T09:28:34.740Z,25.31
2018-08-14T09:31:02.172Z,25.15
2018-08-14T09:33:29.585Z,25.79
2018-08-14T09:35:57.126Z,26.63
2018-08-14T09:38:24.569Z,26.94
2018-08-14T09:40:52.004Z,27.24
2018-08-14T09:43:19.433Z,27.81
2018-08-14T09:45:46.903Z,28.00
2018-08-14T09:48:14.916Z,28.29
2018-08-14T09:50:42.385Z,28.64
2018-08-14T09:53:09.888Z,29.17
2018-08-14T09:55:36.858Z,29.69
2018-08-14T09:58:04.704Z,29.88
2018-08-14T10:00:32.233Z,29.21
2018-08-14T10:02:59.825Z,28.21
2018-08-14T10:05:27.326Z,27.60
2018-08-14T10:07:54.852Z,27.22
2018-08-14T10:10:21.957Z,26.79
2018-08-14T10:12:49.403Z,26.72
2018-08-14T10:15:16.531Z,26.58
2018-08-14T10:17:43.694Z,26.73
2018-08-14T10:20:13.802Z,27.73
2018-08-14T10:22:41.748Z,28.08
2018-08-14T10:25:08.831Z,28.24
2018-08-14T10:27:36.613Z,27.70
2018-08-14T10:30:04.088Z,27.25
2018-08-14T10:32:31.092Z,27.13
2018-08-14T10:34:58.973Z,27.06
2018-08-14T10:37:26.439Z,27.05
2018-08-14T10:39:53.934Z,27.11
2018-08-14T10:42:21.397Z,26.62
2018-08-14T10:44:49.078Z,26.25
2018-08-14T10:47:16.625Z,26.00
2018-08-14T10:49:44.130Z,25.79
2018-08-14T10:52:11.619Z,25.47
2018-08-14T10:54:39.119Z,25.34
2018-08-14T10:57:06.683Z,25.30
2018-08-14T10:59:33.882Z,25.09
2018-08-14T11:02:01.352Z,25.11
2018-08-14T11:04:28.820Z,25.27
2018-08-14T11:06:56.275Z,25.34
2018-08-14T11:09:23.755Z,25.43
2018-08-14T11:11:51.252Z,25.44
2018-08-14T11:14:18.752Z,25.37
2018-08-14T11:16:46.160Z,25.26
2018-08-14T11:19:13.618Z,25.28
2018-08-14T11:21:41.108Z,25.08
2018-08-14T11:24:08.577Z,25.13
2018-08-14T11:26:36.005Z,25.26
2018-08-14T11:29:03.486Z,25.63
2018-08-14T11:31:30.923Z,25.80
2018-08-14T11:33:58.422Z,25.71
2018-08-14T11:36:25.945Z,25.79
2018-08-14T11:38:53.429Z,25.94
2018-08-14T11:41:20.859Z,26.15
2018-08-14T11:43:48.328Z,26.20
2018-08-14T11:46:15.923Z,26.49
2018-08-14T11:48:43.471Z,26.47
2018-08-14T11:51:10.981Z,26.44
2018-08-14T11:53:38.468Z,26.58
2018-08-14T11:56:05.941Z,26.72
2018-08-14T11:58:33.415Z,26.81
2018-08-14T12:01:00.887Z,26.83
2018-08-14T12:03:28.389Z,27.04
2018-08-14T12:05:55.867Z,27.30
2018-08-14T12:08:23.324Z,27.49
2018-08-14T12:10:50.805Z,27.87
2018-08-14T12:13:18.388Z,28.40
2018-08-14T12:15:45.836Z,28.17
2018-08-14T12:18:13.411Z,28.33
2018-08-14T12:20:40.850Z,28.99
2018-08-14T12:23:08.384Z,29.42
2018-08-14T12:25:35.859Z,29.93
2018-08-14T12:28:03.367Z,29.19
2018-08-14T12:30:30.354Z,27.95
2018-08-14T12:32:57.417Z,27.51
2018-08-14T12:35:24.613Z,27.24
2018-08-14T12:37:51.971Z,27.70
2018-08-14T12:40:19.031Z,27.81
2018-08-14T12:42:46.029Z,28.06
2018-08-14T12:45:13.534Z,27.47
2018-08-14T12:47:40.572Z,27.15
2018-08-14T12:50:08.038Z,26.89
2018-08-14T12:52:35.042Z,27.34
2018-08-14T12:55:02.061Z,27.15
2018-08-14T12:57:29.085Z,26.87
2018-08-14T12:59:56.664Z,26.68
2018-08-14T13:02:23.779Z,26.70
2018-08-14T13:04:51.179Z,26.27
2018-08-14T13:07:18.628Z,25.79
2018-08-14T13:09:46.098Z,25.74
2018-08-14T13:12:13.603Z,25.79
2018-08-14T13:14:42.047Z,25.83
2018-08-14T13:17:09.555Z,25.96
2018-08-14T13:19:37.179Z,26.03
2018-08-14T13:22:04.651Z,25.92
2018-08-14T13:24:32.324Z,25.90
2018-08-14T13:26:59.768Z,25.80
2018-08-14T13:29:27.334Z,25.94
2018-08-14T13:31:54.923Z,26.11
2018-08-14T13:34:22.404Z,26.02
2018-08-14T13:36:49.850Z,26.19
2018-08-14T13:39:17.257Z,26.25
2018-08-14T13:41:44.732Z,26.10
2018-08-14T13:44:12.173Z,26.17
2018-08-14T13:46:39.581Z,26.24
2018-08-14T13:49:07.068Z,26.15
2018-08-14T13:51:34.528Z,26.35
2018-08-14T13:54:02.038Z,26.99
2018-08-14T13:56:29.644Z,27.47
2018-08-14T13:58:57.150Z,27.04
2018-08-14T14:01:24.584Z,26.89
2018-08-14T14:03:52.044Z,27.35
2018-08-14T14:06:19.441Z,27.78
2018-08-14T14:08:46.879Z,28.29
2018-08-14T14:11:14.369Z,28.36
2018-08-14T14:13:41.838Z,28.27
2018-08-14T14:16:10.066Z,28.55
2018-08-14T14:18:37.551Z,29.14
2018-08-14T14:21:05.097Z,29.22
2018-08-14T14:23:32.547Z,29.01
2018-08-14T14:26:00.139Z,29.19
2018-08-14T14:28:28.321Z,29.28
2018-08-14T14:30:55.789Z,28.98
2018-08-14T14:33:23.256Z,28.59
2018-08-14T14:35:50.777Z,28.53
2018-08-14T14:38:18.236Z,28.45
2018-08-14T14:40:45.695Z,28.45
2018-08-14T14:43:13.202Z,28.35
2018-08-14T14:45:40.621Z,28.21
2018-08-14T14:48:08.086Z,27.91
2018-08-14T14:50:35.593Z,27.92
2018-08-14T14:53:03.140Z,28.30
2018-08-14T14:55:30.538Z,28.06
2018-08-14T14:57:58.093Z,27.88
2018-08-14T15:00:25.648Z,28.06
2018-08-14T15:02:53.240Z,28.34
2018-08-14T15:05:20.748Z,28.44
2018-08-14T15:07:48.230Z,28.56
2018-08-14T15:10:15.770Z,28.44
2018-08-14T15:12:43.341Z,28.24
2018-08-14T15:15:10.745Z,28.13
2018-08-14T15:17:38.345Z,27.81
2018-08-14T15:20:05.822Z,27.65
2018-08-14T15:22:33.238Z,27.71
2018-08-14T15:25:01.384Z,27.86
2018-08-14T15:27:28.807Z,27.66
2018-08-14T15:29:56.303Z,27.51
2018-08-14T15:32:23.729Z,27.36
2018-08-14T15:34:51.170Z,27.31
2018-08-14T15:37:18.631Z,27.06
2018-08-14T15:39:46.102Z,26.82
2018-08-14T15:42:13.540Z,26.81
2018-08-14T15:44:40.956Z,26.83
2018-08-14T15:47:08.504Z,26.59
2018-08-14T15:49:36.167Z,26.46
2018-08-14T15:52:03.503Z,26.46
2018-08-14T15:54:31.083Z,26.42
2018-08-14T15:56:58.545Z,26.58
2018-08-14T15:59:25.997Z,26.68
2018-08-14T16:01:53.514Z,26.68
2018-08-14T16:04:21.631Z,26.43
2018-08-14T16:06:49.063Z,26.29
2018-08-14T16:09:16.617Z,26.39
2018-08-14T16:11:44.083Z,26.29
2018-08-14T16:14:11.524Z,26.30
2018-08-14T16:16:38.979Z,26.59
2018-08-14T16:19:06.421Z,26.88
2018-08-14T16:21:33.918Z,26.90
2018-08-14T16:24:02.285Z,26.64
2018-08-14T16:26:29.736Z,26.54
2018-08-14T16:28:57.201Z,26.39
2018-08-14T16:31:24.662Z,26.33
2018-08-14T16:33:52.124Z,26.35
2018-08-14T16:36:19.621Z,26.43
2018-08-14T16:38:47.038Z,26.39
2018-08-14T16:41:14.560Z,26.43
2018-08-14T16:43:42.033Z,26.39
2018-08-14T16:46:09.510Z,26.40
2018-08-14T16:48:36.969Z,26.35
2018-08-14T16:51:04.451Z,26.29
2018-08-14T16:53:31.893Z,26.18
2018-08-14T16:55:59.394Z,26.18
2018-08-14T16:58:26.895Z,26.15
2018-08-14T17:00:54.388Z,26.23
2018-08-14T17:03:21.814Z,26.14
2018-08-14T17:05:49.904Z,26.14
2018-08-14T17:08:17.404Z,26.15
2018-08-14T17:10:45.599Z,26.03
2018-08-14T17:13:13.047Z,25.99
2018-08-14T17:15:40.473Z,26.00
2018-08-14T17:18:07.992Z,25.95
2018-08-14T17:20:34.946Z,25.74
2018-08-14T17:23:02.367Z,25.59
2018-08-14T17:25:29.871Z,25.53
2018-08-14T17:27:57.455Z,25.54
2018-08-14T17:30:25.055Z,25.63
2018-08-14T17:32:52.551Z,25.57
2018-08-14T17:35:19.956Z,25.39
2018-08-14T17:37:47.404Z,25.38
2018-08-14T17:40:14.954Z,25.50
2018-08-14T17:42:42.426Z,25.53
2018-08-14T17:45:10.826Z,25.44
2018-08-14T17:47:38.296Z,25.34
2018-08-14T17:50:05.785Z,25.28
2018-08-14T17:52:33.288Z,25.16
2018-08-14T17:55:01.137Z,25.03
2018-08-14T17:57:28.617Z,24.97
2018-08-14T17:59:56.225Z,24.98
2018-08-14T18:02:23.735Z,24.93
2018-08-14T18:04:51.210Z,24.90
2018-08-14T18:07:18.634Z,24.86
2018-08-14T18:09:46.121Z,24.83
2018-08-14T18:12:13.592Z,24.77
2018-08-14T18:14:41.052Z,24.68
2018-08-14T18:17:08.506Z,24.65
2018-08-14T18:19:36.019Z,24.56
2018-08-14T18:22:03.437Z,24.62
2018-08-14T18:24:30.930Z,24.65
2018-08-14T18:26:58.352Z,24.63
2018-08-14T18:29:25.888Z,24.52
2018-08-14T18:31:53.338Z,24.57
2018-08-14T18:34:20.795Z,24.54
2018-08-14T18:36:48.249Z,24.46
2018-08-14T18:39:15.715Z,24.49
2018-08-14T18:41:43.180Z,24.46
2018-08-14T18:44:10.703Z,24.28
2018-08-14T18:46:38.163Z,24.20
2018-08-14T18:49:05.851Z,24.15
2018-08-14T18:51:33.299Z,24.06
2018-08-14T18:54:00.798Z,23.98
2018-08-14T18:56:28.283Z,23.97
2018-08-14T18:58:55.719Z,23.92
2018-08-14T19:01:23.155Z,23.88
2018-08-14T19:03:50.656Z,23.88
2018-08-14T19:06:18.104Z,23.91
2018-08-14T19:08:45.593Z,23.94
2018-08-14T19:11:13.110Z,23.97
2018-08-14T19:13:40.675Z,24.00
2018-08-14T19:16:08.168Z,24.05
2018-08-14T19:18:35.649Z,24.12
2018-08-14T19:21:04.192Z,24.04
2018-08-14T19:23:31.767Z,23.97
2018-08-14T19:25:59.232Z,23.85
2018-08-14T19:28:26.687Z,23.82
2018-08-14T19:30:54.096Z,23.78
2018-08-14T19:33:21.538Z,23.72
2018-08-14T19:35:48.998Z,23.74
2018-08-14T19:38:16.432Z,23.75
2018-08-14T19:40:43.889Z,23.81
2018-08-14T19:43:11.484Z,23.79
2018-08-14T19:45:38.865Z,23.78
2018-08-14T19:48:06.345Z,23.82
2018-08-14T19:50:33.855Z,23.79
2018-08-14T19:53:01.317Z,23.74
2018-08-14T19:55:28.955Z,23.67
2018-08-14T19:57:56.399Z,23.72
2018-08-14T20:00:23.882Z,23.73
2018-08-14T20:02:51.405Z,23.72
2018-08-14T20:05:18.815Z,23.66
2018-08-14T20:07:46.311Z,23.57
2018-08-14T20:10:13.791Z,23.52
2018-08-14T20:12:41.260Z,23.47
2018-08-14T20:15:08.699Z,23.33
2018-08-14T20:17:36.323Z,23.28
2018-08-14T20:20:03.738Z,23.30
2018-08-14T20:22:31.190Z,23.31
2018-08-14T20:24:58.709Z,23.32
2018-08-14T20:27:26.142Z,23.28
2018-08-14T20:29:53.674Z,23.26
2018-08-14T20:32:22.072Z,23.29
2018-08-14T20:34:49.477Z,23.34
2018-08-14T20:37:16.977Z,23.25
2018-08-14T20:39:44.614Z,23.17
2018-08-14T20:42:12.044Z,23.07
2018-08-14T20:44:39.505Z,23.04
2018-08-14T20:47:07.079Z,23.02
2018-08-14T20:49:34.588Z,23.02
2018-08-14T20:52:01.979Z,23.02
2018-08-14T20:54:29.457Z,23.00
2018-08-14T20:56:56.910Z,23.09
2018-08-14T20:59:24.380Z,23.14
2018-08-14T21:01:51.807Z,23.15
2018-08-14T21:04:19.223Z,23.06
2018-08-14T21:06:46.758Z,22.98
2018-08-14T21:09:14.194Z,22.91
2018-08-14T21:11:41.665Z,22.95
2018-08-14T21:14:09.111Z,22.97
2018-08-14T21:16:37.078Z,22.94
2018-08-14T21:19:04.496Z,22.90
2018-08-14T21:21:31.967Z,22.82
2018-08-14T21:23:59.479Z,22.76
2018-08-14T21:26:27.007Z,22.73
2018-08-14T21:28:54.469Z,22.65
2018-08-14T21:31:21.870Z,22.61
2018-08-14T21:33:49.285Z,22.59
2018-08-14T21:36:16.776Z,22.48
2018-08-14T21:38:44.203Z,22.47
2018-08-14T21:41:11.598Z,22.43
2018-08-14T21:43:39.049Z,22.42
2018-08-14T21:46:06.714Z,22.48
2018-08-14T21:48:34.155Z,22.51
2018-08-14T21:51:01.633Z,22.48
2018-08-14T21:53:29.039Z,22.44
2018-08-14T21:55:56.502Z,22.34
2018-08-14T21:58:24.015Z,22.24
2018-08-14T22:00:51.439Z,22.16
2018-08-14T22:03:18.927Z,22.12
2018-08-14T22:05:46.326Z,22.10
2018-08-14T22:08:13.867Z,22.09
2018-08-14T22:10:41.303Z,22.10
2018-08-14T22:13:08.721Z,22.10
2018-08-14T22:15:36.136Z,22.10
2018-08-14T22:18:03.600Z,22.08
2018-08-14T22:20:31.066Z,22.02
2018-08-14T22:22:58.498Z,21.99
2018-08-14T22:25:25.956Z,21.93
2018-08-14T22:27:53.698Z,21.73
2018-08-14T22:30:21.198Z,21.57
2018-08-14T22:32:48.591Z,21.52
2018-08-14T22:35:16.031Z,21.48
2018-08-14T22:37:43.447Z,21.49
2018-08-14T22:40:10.866Z,21.49
2018-08-14T22:42:38.313Z,21.40
2018-08-14T22:45:05.768Z,21.33
2018-08-14T22:47:33.227Z,21.33
2018-08-14T22:50:00.712Z,21.36
2018-08-14T22:52:28.201Z,21.37
2018-08-14T22:54:55.784Z,21.30
2018-08-14T22:57:23.191Z,21.30
2018-08-14T22:59:50.653Z,21.33
2018-08-14T23:02:18.148Z,21.36
2018-08-14T23:04:45.792Z,21.30
2018-08-14T23:07:13.267Z,21.25
2018-08-14T23:09:40.681Z,21.21
2018-08-14T23:12:08.162Z,21.14
2018-08-14T23:14:35.588Z,21.05
2018-08-14T23:17:02.985Z,20.86
2018-08-14T23:19:30.397Z,20.69
2018-08-14T23:21:57.914Z,20.72
2018-08-14T23:24:25.434Z,20.71
2018-08-14T23:26:52.875Z,20.66
2018-08-14T23:29:20.730Z,20.68
2018-08-14T23:31:48.148Z,20.66
2018-08-14T23:34:15.609Z,20.70
2018-08-14T23:36:43.097Z,20.70
2018-08-14T23:39:10.557Z,20.72
2018-08-14T23:41:38.019Z,20.66
2018-08-14T23:44:05.577Z,20.63
2018-08-14T23:46:33.083Z,20.64
2018-08-14T23:49:00.528Z,20.61
2018-08-14T23:51:27.986Z,20.55
2018-08-14T23:53:55.425Z,20.49
2018-08-14T23:56:22.851Z,20.36
2018-08-14T23:58:50.362Z,20.33
